sensor_id;sensor_type;location;lat;lon;timestamp;temperature;humidity
46608;DHT22;32330;51.936;7.184;2022-09-12T00:01:04;14.70;99.90
46608;DHT22;32330;51.936;7.184;2022-09-12T00:03:30;14.60;99.90
46608;DHT22;32330;51.936;7.184;2022-09-12T00:05:55;14.70;99.90
46608;DHT22;32330;51.936;7.184;2022-09-12T00:08:21;14.60;99.90
46608;DHT22;32330;51.936;7.184;2022-09-12T00:10:46;14.60;99.90
46608;DHT22;32330;51.936;7.184;2022-09-12T00:13:12;14.60;99.90
46608;DHT22;32330;51.936;7.184;2022-09-12T00:15:38;14.50;99.90
46608;DHT22;32330;51.936;7.184;2022-09-12T00:18:03;14.50;99.90
46608;DHT22;32330;51.936;7.184;2022-09-12T00:20:29;14.50;99.90
46608;DHT22;32330;51.936;7.184;2022-09-12T00:22:54;14.50;99.90
46608;DHT22;32330;51.936;7.184;2022-09-12T00:25:20;14.50;99.90
46608;DHT22;32330;51.936;7.184;2022-09-12T00:27:45;14.50;99.90
46608;DHT22;32330;51.936;7.184;2022-09-12T00:30:11;14.50;99.90
46608;DHT22;32330;51.936;7.184;2022-09-12T00:32:37;14.40;99.90
46608;DHT22;32330;51.936;7.184;2022-09-12T00:35:02;14.40;99.90
46608;DHT22;32330;51.936;7.184;2022-09-12T00:37:28;14.40;99.90
46608;DHT22;32330;51.936;7.184;2022-09-12T00:39:53;14.40;99.90
46608;DHT22;32330;51.936;7.184;2022-09-12T00:42:19;14.40;99.90
46608;DHT22;32330;51.936;7.184;2022-09-12T00:44:46;14.30;99.90
46608;DHT22;32330;51.936;7.184;2022-09-12T00:47:15;14.30;99.90
46608;DHT22;32330;51.936;7.184;2022-09-12T00:52:11;14.30;99.90
46608;DHT22;32330;51.936;7.184;2022-09-12T00:54:51;14.30;99.90
46608;DHT22;32330;51.936;7.184;2022-09-12T00:57:17;14.30;99.90
46608;DHT22;32330;51.936;7.184;2022-09-12T00:59:46;14.30;99.90
46608;DHT22;32330;51.936;7.184;2022-09-12T01:02:16;14.20;99.90
46608;DHT22;32330;51.936;7.184;2022-09-12T01:04:44;14.20;99.90
46608;DHT22;32330;51.936;7.184;2022-09-12T01:07:12;14.20;99.90
46608;DHT22;32330;51.936;7.184;2022-09-12T01:09:39;14.20;99.90
46608;DHT22;32330;51.936;7.184;2022-09-12T01:12:06;14.20;99.90
46608;DHT22;32330;51.936;7.184;2022-09-12T01:14:32;14.10;99.90
46608;DHT22;32330;51.936;7.184;2022-09-12T01:16:58;14.10;99.90
46608;DHT22;32330;51.936;7.184;2022-09-12T01:19:39;14.10;99.90
46608;DHT22;32330;51.936;7.184;2022-09-12T01:29:43;14.10;99.90
46608;DHT22;32330;51.936;7.184;2022-09-12T01:32:14;14.10;99.90
46608;DHT22;32330;51.936;7.184;2022-09-12T01:34:48;14.00;99.90
46608;DHT22;32330;51.936;7.184;2022-09-12T01:42:42;14.00;99.90
46608;DHT22;32330;51.936;7.184;2022-09-12T01:45:45;14.00;99.90
46608;DHT22;32330;51.936;7.184;2022-09-12T01:50:36;13.90;99.90
46608;DHT22;32330;51.936;7.184;2022-09-12T01:53:03;14.00;99.90
46608;DHT22;32330;51.936;7.184;2022-09-12T01:55:36;13.90;99.90
46608;DHT22;32330;51.936;7.184;2022-09-12T01:58:10;13.90;99.90
46608;DHT22;32330;51.936;7.184;2022-09-12T02:00:39;13.90;99.90
46608;DHT22;32330;51.936;7.184;2022-09-12T02:03:14;13.80;99.90
46608;DHT22;32330;51.936;7.184;2022-09-12T02:05:42;13.80;99.90
46608;DHT22;32330;51.936;7.184;2022-09-12T02:08:13;13.80;99.90
46608;DHT22;32330;51.936;7.184;2022-09-12T02:10:41;13.70;99.90
46608;DHT22;32330;51.936;7.184;2022-09-12T02:15:35;13.70;99.90
46608;DHT22;32330;51.936;7.184;2022-09-12T02:18:04;13.60;99.90
46608;DHT22;32330;51.936;7.184;2022-09-12T02:20:30;13.70;99.90
46608;DHT22;32330;51.936;7.184;2022-09-12T02:22:57;13.70;99.90
46608;DHT22;32330;51.936;7.184;2022-09-12T02:25:24;13.60;99.90
46608;DHT22;32330;51.936;7.184;2022-09-12T02:27:52;13.60;99.90
46608;DHT22;32330;51.936;7.184;2022-09-12T02:30:19;13.60;99.90
46608;DHT22;32330;51.936;7.184;2022-09-12T02:32:55;13.60;99.90
46608;DHT22;32330;51.936;7.184;2022-09-12T02:37:56;13.50;99.90
46608;DHT22;32330;51.936;7.184;2022-09-12T02:40:25;13.50;99.90
46608;DHT22;32330;51.936;7.184;2022-09-12T02:42:50;13.50;99.90
46608;DHT22;32330;51.936;7.184;2022-09-12T02:45:16;13.40;99.90
46608;DHT22;32330;51.936;7.184;2022-09-12T02:47:43;13.40;99.90
46608;DHT22;32330;51.936;7.184;2022-09-12T02:50:10;13.40;99.90
46608;DHT22;32330;51.936;7.184;2022-09-12T02:52:36;13.40;99.90
46608;DHT22;32330;51.936;7.184;2022-09-12T02:55:02;13.40;99.90
46608;DHT22;32330;51.936;7.184;2022-09-12T02:57:29;13.50;99.90
46608;DHT22;32330;51.936;7.184;2022-09-12T02:59:56;13.40;99.90
46608;DHT22;32330;51.936;7.184;2022-09-12T03:02:25;13.40;99.90
46608;DHT22;32330;51.936;7.184;2022-09-12T03:04:57;13.30;99.90
46608;DHT22;32330;51.936;7.184;2022-09-12T03:07:46;13.30;99.90
46608;DHT22;32330;51.936;7.184;2022-09-12T03:15:39;13.30;99.90
46608;DHT22;32330;51.936;7.184;2022-09-12T03:18:20;13.20;99.90
46608;DHT22;32330;51.936;7.184;2022-09-12T03:23:18;13.20;99.90
46608;DHT22;32330;51.936;7.184;2022-09-12T03:25:53;13.20;99.90
46608;DHT22;32330;51.936;7.184;2022-09-12T03:28:20;13.10;99.90
46608;DHT22;32330;51.936;7.184;2022-09-12T03:30:48;13.20;99.90
46608;DHT22;32330;51.936;7.184;2022-09-12T03:33:19;13.20;99.90
46608;DHT22;32330;51.936;7.184;2022-09-12T03:35:45;13.10;99.90
46608;DHT22;32330;51.936;7.184;2022-09-12T03:38:11;13.10;99.90
46608;DHT22;32330;51.936;7.184;2022-09-12T03:40:37;13.00;99.90
46608;DHT22;32330;51.936;7.184;2022-09-12T03:43:03;13.10;99.90
46608;DHT22;32330;51.936;7.184;2022-09-12T03:45:29;13.00;99.90
46608;DHT22;32330;51.936;7.184;2022-09-12T03:47:54;13.00;99.90
46608;DHT22;32330;51.936;7.184;2022-09-12T03:50:20;13.00;99.90
46608;DHT22;32330;51.936;7.184;2022-09-12T03:52:45;13.10;99.90
46608;DHT22;32330;51.936;7.184;2022-09-12T03:55:11;13.00;99.90
46608;DHT22;32330;51.936;7.184;2022-09-12T03:57:37;13.00;99.90
46608;DHT22;32330;51.936;7.184;2022-09-12T04:00:03;13.00;99.90
46608;DHT22;32330;51.936;7.184;2022-09-12T04:02:29;13.00;99.90
46608;DHT22;32330;51.936;7.184;2022-09-12T04:04:55;13.00;99.90
46608;DHT22;32330;51.936;7.184;2022-09-12T04:07:20;13.00;99.90
46608;DHT22;32330;51.936;7.184;2022-09-12T04:09:46;12.90;99.90
46608;DHT22;32330;51.936;7.184;2022-09-12T04:12:11;12.90;99.90
46608;DHT22;32330;51.936;7.184;2022-09-12T04:14:38;12.90;99.90
46608;DHT22;32330;51.936;7.184;2022-09-12T04:17:04;12.90;99.90
46608;DHT22;32330;51.936;7.184;2022-09-12T04:19:29;12.80;99.90
46608;DHT22;32330;51.936;7.184;2022-09-12T04:21:55;12.80;99.90
46608;DHT22;32330;51.936;7.184;2022-09-12T04:24:20;12.90;99.90
46608;DHT22;32330;51.936;7.184;2022-09-12T04:26:46;12.80;99.90
46608;DHT22;32330;51.936;7.184;2022-09-12T04:29:11;12.90;99.90
46608;DHT22;32330;51.936;7.184;2022-09-12T04:31:37;12.80;99.90
46608;DHT22;32330;51.936;7.184;2022-09-12T04:34:02;12.80;99.90
46608;DHT22;32330;51.936;7.184;2022-09-12T04:36:29;12.80;99.90
46608;DHT22;32330;51.936;7.184;2022-09-12T04:38:55;12.80;99.90
46608;DHT22;32330;51.936;7.184;2022-09-12T04:41:22;12.80;99.90
46608;DHT22;32330;51.936;7.184;2022-09-12T04:43:52;12.80;99.90
46608;DHT22;32330;51.936;7.184;2022-09-12T04:46:18;12.80;99.90
46608;DHT22;32330;51.936;7.184;2022-09-12T04:48:44;12.80;99.90
46608;DHT22;32330;51.936;7.184;2022-09-12T04:51:15;12.80;99.90
46608;DHT22;32330;51.936;7.184;2022-09-12T04:53:40;12.80;99.90
46608;DHT22;32330;51.936;7.184;2022-09-12T04:56:06;12.70;99.90
46608;DHT22;32330;51.936;7.184;2022-09-12T04:58:32;12.70;99.90
46608;DHT22;32330;51.936;7.184;2022-09-12T05:01:08;12.70;99.90
46608;DHT22;32330;51.936;7.184;2022-09-12T05:03:34;12.70;99.90
46608;DHT22;32330;51.936;7.184;2022-09-12T05:06:04;12.80;99.90
46608;DHT22;32330;51.936;7.184;2022-09-12T05:08:29;12.70;99.90
46608;DHT22;32330;51.936;7.184;2022-09-12T05:10:55;12.70;99.90
46608;DHT22;32330;51.936;7.184;2022-09-12T05:13:21;12.70;99.90
46608;DHT22;32330;51.936;7.184;2022-09-12T05:15:54;12.80;99.90
46608;DHT22;32330;51.936;7.184;2022-09-12T05:18:19;12.80;99.90
46608;DHT22;32330;51.936;7.184;2022-09-12T05:20:45;12.80;99.90
46608;DHT22;32330;51.936;7.184;2022-09-12T05:23:11;12.80;99.90
46608;DHT22;32330;51.936;7.184;2022-09-12T05:25:36;12.80;99.90
46608;DHT22;32330;51.936;7.184;2022-09-12T05:28:02;12.80;99.90
46608;DHT22;32330;51.936;7.184;2022-09-12T05:30:27;12.90;99.90
46608;DHT22;32330;51.936;7.184;2022-09-12T05:32:52;12.90;99.90
46608;DHT22;32330;51.936;7.184;2022-09-12T05:35:18;13.00;99.90
46608;DHT22;32330;51.936;7.184;2022-09-12T05:37:43;13.00;99.90
46608;DHT22;32330;51.936;7.184;2022-09-12T05:40:09;13.00;99.90
46608;DHT22;32330;51.936;7.184;2022-09-12T05:42:34;13.00;99.90
46608;DHT22;32330;51.936;7.184;2022-09-12T05:45:01;13.10;99.90
46608;DHT22;32330;51.936;7.184;2022-09-12T05:47:26;13.10;99.90
46608;DHT22;32330;51.936;7.184;2022-09-12T05:49:51;13.20;99.90
46608;DHT22;32330;51.936;7.184;2022-09-12T05:52:17;13.20;99.90
46608;DHT22;32330;51.936;7.184;2022-09-12T05:54:44;13.30;99.90
46608;DHT22;32330;51.936;7.184;2022-09-12T05:57:10;13.40;99.90
46608;DHT22;32330;51.936;7.184;2022-09-12T05:59:36;13.40;99.90
46608;DHT22;32330;51.936;7.184;2022-09-12T06:02:01;13.50;99.90
46608;DHT22;32330;51.936;7.184;2022-09-12T06:04:27;13.60;99.90
46608;DHT22;32330;51.936;7.184;2022-09-12T06:06:52;13.70;99.90
46608;DHT22;32330;51.936;7.184;2022-09-12T06:09:18;13.80;99.90
46608;DHT22;32330;51.936;7.184;2022-09-12T06:11:44;13.90;99.90
46608;DHT22;32330;51.936;7.184;2022-09-12T06:14:10;14.00;99.90
46608;DHT22;32330;51.936;7.184;2022-09-12T06:16:37;14.10;99.90
46608;DHT22;32330;51.936;7.184;2022-09-12T06:19:03;14.20;99.90
46608;DHT22;32330;51.936;7.184;2022-09-12T06:21:30;14.40;99.90
46608;DHT22;32330;51.936;7.184;2022-09-12T06:23:57;14.50;99.90
46608;DHT22;32330;51.936;7.184;2022-09-12T06:26:26;14.50;99.90
46608;DHT22;32330;51.936;7.184;2022-09-12T06:28:52;14.60;99.90
46608;DHT22;32330;51.936;7.184;2022-09-12T06:31:19;14.80;99.90
46608;DHT22;32330;51.936;7.184;2022-09-12T06:34:06;14.90;99.90
46608;DHT22;32330;51.936;7.184;2022-09-12T06:36:38;15.00;99.90
46608;DHT22;32330;51.936;7.184;2022-09-12T06:39:05;15.10;99.90
46608;DHT22;32330;51.936;7.184;2022-09-12T06:41:32;15.20;99.90
46608;DHT22;32330;51.936;7.184;2022-09-12T06:43:57;15.30;99.90
46608;DHT22;32330;51.936;7.184;2022-09-12T06:46:23;15.30;99.90
46608;DHT22;32330;51.936;7.184;2022-09-12T06:48:49;15.30;99.90
46608;DHT22;32330;51.936;7.184;2022-09-12T06:51:15;15.40;99.90
46608;DHT22;32330;51.936;7.184;2022-09-12T06:53:42;15.40;99.90
46608;DHT22;32330;51.936;7.184;2022-09-12T06:56:12;15.40;99.90
46608;DHT22;32330;51.936;7.184;2022-09-12T06:58:38;15.50;99.90
46608;DHT22;32330;51.936;7.184;2022-09-12T07:03:29;15.50;99.90
46608;DHT22;32330;51.936;7.184;2022-09-12T07:05:55;15.60;99.90
46608;DHT22;32330;51.936;7.184;2022-09-12T07:08:21;15.60;99.90
46608;DHT22;32330;51.936;7.184;2022-09-12T07:10:46;15.70;99.90
46608;DHT22;32330;51.936;7.184;2022-09-12T07:13:12;15.80;99.90
46608;DHT22;32330;51.936;7.184;2022-09-12T07:15:38;15.80;99.90
46608;DHT22;32330;51.936;7.184;2022-09-12T07:18:04;15.80;99.90
46608;DHT22;32330;51.936;7.184;2022-09-12T07:20:30;15.80;99.90
46608;DHT22;32330;51.936;7.184;2022-09-12T07:22:57;15.90;99.90
46608;DHT22;32330;51.936;7.184;2022-09-12T07:25:23;15.90;99.90
46608;DHT22;32330;51.936;7.184;2022-09-12T07:27:48;15.90;99.90
46608;DHT22;32330;51.936;7.184;2022-09-12T07:30:14;16.00;99.90
46608;DHT22;32330;51.936;7.184;2022-09-12T07:32:40;16.10;99.90
46608;DHT22;32330;51.936;7.184;2022-09-12T07:35:06;16.10;99.90
46608;DHT22;32330;51.936;7.184;2022-09-12T07:37:31;16.20;99.90
46608;DHT22;32330;51.936;7.184;2022-09-12T07:39:57;16.20;99.90
46608;DHT22;32330;51.936;7.184;2022-09-12T07:42:23;16.30;99.90
46608;DHT22;32330;51.936;7.184;2022-09-12T07:44:48;16.30;99.90
46608;DHT22;32330;51.936;7.184;2022-09-12T07:47:16;16.30;99.90
46608;DHT22;32330;51.936;7.184;2022-09-12T07:49:42;16.40;99.90
46608;DHT22;32330;51.936;7.184;2022-09-12T07:52:08;16.50;99.90
46608;DHT22;32330;51.936;7.184;2022-09-12T07:54:33;16.60;99.90
46608;DHT22;32330;51.936;7.184;2022-09-12T07:56:59;16.60;99.90
46608;DHT22;32330;51.936;7.184;2022-09-12T07:59:24;16.70;99.90
46608;DHT22;32330;51.936;7.184;2022-09-12T08:01:50;16.70;99.90
46608;DHT22;32330;51.936;7.184;2022-09-12T08:04:15;16.80;99.90
46608;DHT22;32330;51.936;7.184;2022-09-12T08:06:41;16.80;99.90
46608;DHT22;32330;51.936;7.184;2022-09-12T08:09:07;16.90;99.90
46608;DHT22;32330;51.936;7.184;2022-09-12T08:11:32;16.90;99.90
46608;DHT22;32330;51.936;7.184;2022-09-12T08:13:58;16.90;99.90
46608;DHT22;32330;51.936;7.184;2022-09-12T08:16:27;17.00;99.90
46608;DHT22;32330;51.936;7.184;2022-09-12T08:18:53;17.00;99.90
46608;DHT22;32330;51.936;7.184;2022-09-12T08:21:24;17.10;99.90
46608;DHT22;32330;51.936;7.184;2022-09-12T08:23:50;17.20;99.90
46608;DHT22;32330;51.936;7.184;2022-09-12T08:26:16;17.20;99.90
46608;DHT22;32330;51.936;7.184;2022-09-12T08:28:42;17.20;99.90
46608;DHT22;32330;51.936;7.184;2022-09-12T08:31:10;17.30;99.90
46608;DHT22;32330;51.936;7.184;2022-09-12T08:33:36;17.40;99.90
46608;DHT22;32330;51.936;7.184;2022-09-12T08:36:02;17.50;99.90
46608;DHT22;32330;51.936;7.184;2022-09-12T08:38:29;17.70;99.90
46608;DHT22;32330;51.936;7.184;2022-09-12T08:40:58;17.80;99.90
46608;DHT22;32330;51.936;7.184;2022-09-12T08:46:14;17.90;99.90
46608;DHT22;32330;51.936;7.184;2022-09-12T08:48:42;17.90;99.90
46608;DHT22;32330;51.936;7.184;2022-09-12T08:51:09;18.00;99.90
46608;DHT22;32330;51.936;7.184;2022-09-12T08:53:36;18.00;99.90
46608;DHT22;32330;51.936;7.184;2022-09-12T08:56:02;18.00;99.90
46608;DHT22;32330;51.936;7.184;2022-09-12T08:58:38;18.00;99.90
46608;DHT22;32330;51.936;7.184;2022-09-12T09:06:22;18.10;99.90
46608;DHT22;32330;51.936;7.184;2022-09-12T09:08:56;18.20;99.90
46608;DHT22;32330;51.936;7.184;2022-09-12T09:11:29;18.40;99.90
46608;DHT22;32330;51.936;7.184;2022-09-12T09:16:41;18.80;99.90
46608;DHT22;32330;51.936;7.184;2022-09-12T09:19:25;18.80;99.90
46608;DHT22;32330;51.936;7.184;2022-09-12T09:21:56;19.00;99.90
46608;DHT22;32330;51.936;7.184;2022-09-12T09:24:27;19.20;99.90
46608;DHT22;32330;51.936;7.184;2022-09-12T09:26:59;19.60;99.90
46608;DHT22;32330;51.936;7.184;2022-09-12T09:29:32;19.80;99.90
46608;DHT22;32330;51.936;7.184;2022-09-12T09:32:00;20.00;99.90
46608;DHT22;32330;51.936;7.184;2022-09-12T09:34:29;20.10;99.90
46608;DHT22;32330;51.936;7.184;2022-09-12T09:43:08;20.50;99.90
46608;DHT22;32330;51.936;7.184;2022-09-12T09:45:38;20.60;99.90
46608;DHT22;32330;51.936;7.184;2022-09-12T09:50:36;20.60;99.90
46608;DHT22;32330;51.936;7.184;2022-09-12T09:53:02;20.80;99.90
46608;DHT22;32330;51.936;7.184;2022-09-12T09:55:29;20.90;99.90
46608;DHT22;32330;51.936;7.184;2022-09-12T09:57:58;20.90;99.90
46608;DHT22;32330;51.936;7.184;2022-09-12T10:00:27;21.10;99.90
46608;DHT22;32330;51.936;7.184;2022-09-12T10:03:01;21.10;99.90
46608;DHT22;32330;51.936;7.184;2022-09-12T10:05:28;21.30;99.90
46608;DHT22;32330;51.936;7.184;2022-09-12T10:07:54;21.40;99.90
46608;DHT22;32330;51.936;7.184;2022-09-12T10:10:19;21.40;99.90
46608;DHT22;32330;51.936;7.184;2022-09-12T10:12:48;21.50;99.90
46608;DHT22;32330;51.936;7.184;2022-09-12T10:15:23;21.60;99.90
46608;DHT22;32330;51.936;7.184;2022-09-12T10:17:53;21.70;99.90
46608;DHT22;32330;51.936;7.184;2022-09-12T10:22:55;21.90;99.90
46608;DHT22;32330;51.936;7.184;2022-09-12T10:25:21;22.10;99.90
46608;DHT22;32330;51.936;7.184;2022-09-12T10:28:11;22.30;99.90
46608;DHT22;32330;51.936;7.184;2022-09-12T10:30:36;22.40;99.90
46608;DHT22;32330;51.936;7.184;2022-09-12T10:33:06;22.50;99.90
46608;DHT22;32330;51.936;7.184;2022-09-12T10:35:41;22.60;99.90
46608;DHT22;32330;51.936;7.184;2022-09-12T10:38:13;22.70;99.90
46608;DHT22;32330;51.936;7.184;2022-09-12T10:40:42;22.80;99.90
46608;DHT22;32330;51.936;7.184;2022-09-12T10:43:17;22.90;99.90
46608;DHT22;32330;51.936;7.184;2022-09-12T10:45:48;23.10;99.90
46608;DHT22;32330;51.936;7.184;2022-09-12T10:50:45;23.30;99.90
46608;DHT22;32330;51.936;7.184;2022-09-12T10:53:13;23.30;99.90
46608;DHT22;32330;51.936;7.184;2022-09-12T10:55:38;23.50;99.90
46608;DHT22;32330;51.936;7.184;2022-09-12T10:58:10;23.60;99.90
46608;DHT22;32330;51.936;7.184;2022-09-12T11:00:39;23.60;99.90
46608;DHT22;32330;51.936;7.184;2022-09-12T11:03:21;23.60;99.90
46608;DHT22;32330;51.936;7.184;2022-09-12T11:05:59;23.70;99.90
46608;DHT22;32330;51.936;7.184;2022-09-12T11:10:57;23.70;99.90
46608;DHT22;32330;51.936;7.184;2022-09-12T11:21:38;24.00;99.90
46608;DHT22;32330;51.936;7.184;2022-09-12T11:29:21;24.20;99.90
46608;DHT22;32330;51.936;7.184;2022-09-12T11:32:10;24.30;99.90
46608;DHT22;32330;51.936;7.184;2022-09-12T11:39:37;24.70;99.90
46608;DHT22;32330;51.936;7.184;2022-09-12T11:42:03;24.70;99.40
46608;DHT22;32330;51.936;7.184;2022-09-12T11:44:37;24.60;99.80
46608;DHT22;32330;51.936;7.184;2022-09-12T11:47:05;24.60;99.90
46608;DHT22;32330;51.936;7.184;2022-09-12T11:49:33;24.60;99.20
46608;DHT22;32330;51.936;7.184;2022-09-12T11:52:01;24.70;98.40
46608;DHT22;32330;51.936;7.184;2022-09-12T11:57:17;24.90;98.10
46608;DHT22;32330;51.936;7.184;2022-09-12T11:59:46;25.00;97.40
46608;DHT22;32330;51.936;7.184;2022-09-12T12:02:27;25.00;97.40
46608;DHT22;32330;51.936;7.184;2022-09-12T12:07:21;24.70;96.60
46608;DHT22;32330;51.936;7.184;2022-09-12T12:09:48;24.60;96.40
46608;DHT22;32330;51.936;7.184;2022-09-12T12:12:15;24.50;96.40
46608;DHT22;32330;51.936;7.184;2022-09-12T12:14:43;24.50;95.90
46608;DHT22;32330;51.936;7.184;2022-09-12T12:17:15;24.90;97.00
46608;DHT22;32330;51.936;7.184;2022-09-12T12:19:41;25.20;94.90
46608;DHT22;32330;51.936;7.184;2022-09-12T12:22:28;25.20;93.90
46608;DHT22;32330;51.936;7.184;2022-09-12T12:27:22;25.20;93.40
46608;DHT22;32330;51.936;7.184;2022-09-12T12:29:48;25.40;94.00
46608;DHT22;32330;51.936;7.184;2022-09-12T12:34:42;25.30;92.90
46608;DHT22;32330;51.936;7.184;2022-09-12T12:45:00;25.70;91.20
46608;DHT22;32330;51.936;7.184;2022-09-12T12:47:31;25.80;91.50
46608;DHT22;32330;51.936;7.184;2022-09-12T12:52:23;25.70;89.10
46608;DHT22;32330;51.936;7.184;2022-09-12T12:54:51;25.90;90.50
46608;DHT22;32330;51.936;7.184;2022-09-12T12:57:25;25.90;91.80
46608;DHT22;32330;51.936;7.184;2022-09-12T13:00:37;25.90;91.20
46608;DHT22;32330;51.936;7.184;2022-09-12T13:02:39;26.00;90.90
46608;DHT22;32330;51.936;7.184;2022-09-12T13:05:09;26.10;90.60
46608;DHT22;32330;51.936;7.184;2022-09-12T13:07:40;26.20;89.30
46608;DHT22;32330;51.936;7.184;2022-09-12T13:10:17;26.40;90.10
46608;DHT22;32330;51.936;7.184;2022-09-12T13:12:45;26.00;88.50
46608;DHT22;32330;51.936;7.184;2022-09-12T13:17:57;25.90;89.80
46608;DHT22;32330;51.936;7.184;2022-09-12T13:20:25;25.90;89.50
46608;DHT22;32330;51.936;7.184;2022-09-12T13:22:52;25.80;90.20
46608;DHT22;32330;51.936;7.184;2022-09-12T13:27:57;25.90;86.40
46608;DHT22;32330;51.936;7.184;2022-09-12T13:30:22;26.10;89.10
46608;DHT22;32330;51.936;7.184;2022-09-12T13:32:48;26.10;86.80
46608;DHT22;32330;51.936;7.184;2022-09-12T13:35:20;26.20;87.30
46608;DHT22;32330;51.936;7.184;2022-09-12T13:37:48;26.30;87.70
46608;DHT22;32330;51.936;7.184;2022-09-12T13:40:26;26.10;86.50
46608;DHT22;32330;51.936;7.184;2022-09-12T13:43:05;26.20;86.10
46608;DHT22;32330;51.936;7.184;2022-09-12T13:45:34;26.00;85.90
46608;DHT22;32330;51.936;7.184;2022-09-12T13:48:00;25.70;85.80
46608;DHT22;32330;51.936;7.184;2022-09-12T13:50:36;25.40;84.80
46608;DHT22;32330;51.936;7.184;2022-09-12T13:53:04;25.20;86.60
46608;DHT22;32330;51.936;7.184;2022-09-12T13:55:41;25.30;86.30
46608;DHT22;32330;51.936;7.184;2022-09-12T14:00:42;25.40;85.60
46608;DHT22;32330;51.936;7.184;2022-09-12T14:06:11;25.60;87.20
46608;DHT22;32330;51.936;7.184;2022-09-12T14:08:40;25.70;85.70
46608;DHT22;32330;51.936;7.184;2022-09-12T14:11:07;25.50;86.10
46608;DHT22;32330;51.936;7.184;2022-09-12T14:13:34;25.60;86.40
46608;DHT22;32330;51.936;7.184;2022-09-12T14:16:00;25.70;86.00
46608;DHT22;32330;51.936;7.184;2022-09-12T14:18:27;25.80;84.80
46608;DHT22;32330;51.936;7.184;2022-09-12T14:20:53;25.90;83.80
46608;DHT22;32330;51.936;7.184;2022-09-12T14:25:46;26.00;83.70
46608;DHT22;32330;51.936;7.184;2022-09-12T14:28:13;26.00;81.80
46608;DHT22;32330;51.936;7.184;2022-09-12T14:30:44;26.00;83.10
46608;DHT22;32330;51.936;7.184;2022-09-12T14:33:21;26.00;82.30
46608;DHT22;32330;51.936;7.184;2022-09-12T14:35:50;26.00;82.70
46608;DHT22;32330;51.936;7.184;2022-09-12T14:40:45;25.80;83.10
46608;DHT22;32330;51.936;7.184;2022-09-12T14:43:20;25.80;81.80
46608;DHT22;32330;51.936;7.184;2022-09-12T14:45:52;25.90;81.90
46608;DHT22;32330;51.936;7.184;2022-09-12T14:48:19;25.80;80.80
46608;DHT22;32330;51.936;7.184;2022-09-12T14:50:47;25.90;82.30
46608;DHT22;32330;51.936;7.184;2022-09-12T14:55:43;26.00;80.60
46608;DHT22;32330;51.936;7.184;2022-09-12T15:03:25;25.90;83.70
46608;DHT22;32330;51.936;7.184;2022-09-12T15:05:51;25.90;83.50
46608;DHT22;32330;51.936;7.184;2022-09-12T15:08:16;25.90;82.70
46608;DHT22;32330;51.936;7.184;2022-09-12T15:10:42;25.80;81.30
46608;DHT22;32330;51.936;7.184;2022-09-12T15:15:33;25.60;82.90
46608;DHT22;32330;51.936;7.184;2022-09-12T15:17:59;25.60;81.40
46608;DHT22;32330;51.936;7.184;2022-09-12T15:20:24;25.60;82.00
46608;DHT22;32330;51.936;7.184;2022-09-12T15:22:50;25.70;81.60
46608;DHT22;32330;51.936;7.184;2022-09-12T15:25:16;25.60;81.70
46608;DHT22;32330;51.936;7.184;2022-09-12T15:27:42;25.50;81.60
46608;DHT22;32330;51.936;7.184;2022-09-12T15:30:08;25.60;82.70
46608;DHT22;32330;51.936;7.184;2022-09-12T15:32:34;25.60;83.30
46608;DHT22;32330;51.936;7.184;2022-09-12T15:41:10;25.40;83.50
46608;DHT22;32330;51.936;7.184;2022-09-12T15:43:36;25.20;83.20
46608;DHT22;32330;51.936;7.184;2022-09-12T15:46:01;25.20;84.30
46608;DHT22;32330;51.936;7.184;2022-09-12T15:48:31;25.40;84.50
46608;DHT22;32330;51.936;7.184;2022-09-12T15:50:56;25.30;84.30
46608;DHT22;32330;51.936;7.184;2022-09-12T15:53:41;25.20;84.80
46608;DHT22;32330;51.936;7.184;2022-09-12T15:59:13;25.20;82.10
46608;DHT22;32330;51.936;7.184;2022-09-12T16:07:46;25.00;83.50
46608;DHT22;32330;51.936;7.184;2022-09-12T16:10:15;25.00;83.70
46608;DHT22;32330;51.936;7.184;2022-09-12T16:12:42;25.00;83.90
46608;DHT22;32330;51.936;7.184;2022-09-12T16:15:10;24.90;84.30
46608;DHT22;32330;51.936;7.184;2022-09-12T16:17:36;25.00;83.60
46608;DHT22;32330;51.936;7.184;2022-09-12T16:20:02;24.90;82.80
46608;DHT22;32330;51.936;7.184;2022-09-12T16:22:27;25.00;84.50
46608;DHT22;32330;51.936;7.184;2022-09-12T16:24:53;24.90;86.10
46608;DHT22;32330;51.936;7.184;2022-09-12T16:27:18;24.80;84.50
46608;DHT22;32330;51.936;7.184;2022-09-12T16:29:43;24.60;84.70
46608;DHT22;32330;51.936;7.184;2022-09-12T16:32:09;24.60;84.20
46608;DHT22;32330;51.936;7.184;2022-09-12T16:34:34;24.60;85.20
46608;DHT22;32330;51.936;7.184;2022-09-12T16:37:00;24.50;85.30
46608;DHT22;32330;51.936;7.184;2022-09-12T16:39:28;24.40;84.20
46608;DHT22;32330;51.936;7.184;2022-09-12T16:41:53;24.40;86.00
46608;DHT22;32330;51.936;7.184;2022-09-12T16:44:19;24.40;85.30
46608;DHT22;32330;51.936;7.184;2022-09-12T16:46:44;24.30;84.10
46608;DHT22;32330;51.936;7.184;2022-09-12T16:49:10;24.30;84.30
46608;DHT22;32330;51.936;7.184;2022-09-12T16:51:36;24.20;85.60
46608;DHT22;32330;51.936;7.184;2022-09-12T16:54:01;24.20;83.60
46608;DHT22;32330;51.936;7.184;2022-09-12T16:56:27;24.10;84.10
46608;DHT22;32330;51.936;7.184;2022-09-12T16:58:53;24.00;84.60
46608;DHT22;32330;51.936;7.184;2022-09-12T17:01:19;24.00;84.80
46608;DHT22;32330;51.936;7.184;2022-09-12T17:03:45;24.00;86.80
46608;DHT22;32330;51.936;7.184;2022-09-12T17:06:12;23.90;85.90
46608;DHT22;32330;51.936;7.184;2022-09-12T17:08:39;23.80;86.80
46608;DHT22;32330;51.936;7.184;2022-09-12T17:11:09;23.80;86.20
46608;DHT22;32330;51.936;7.184;2022-09-12T17:13:34;23.70;87.50
46608;DHT22;32330;51.936;7.184;2022-09-12T17:16:03;23.60;88.90
46608;DHT22;32330;51.936;7.184;2022-09-12T17:18:29;23.60;88.70
46608;DHT22;32330;51.936;7.184;2022-09-12T17:20:54;23.50;90.00
46608;DHT22;32330;51.936;7.184;2022-09-12T17:23:20;23.50;90.10
46608;DHT22;32330;51.936;7.184;2022-09-12T17:25:46;23.40;90.20
46608;DHT22;32330;51.936;7.184;2022-09-12T17:28:12;23.40;91.00
46608;DHT22;32330;51.936;7.184;2022-09-12T17:30:37;23.30;91.00
46608;DHT22;32330;51.936;7.184;2022-09-12T17:33:03;23.20;91.70
46608;DHT22;32330;51.936;7.184;2022-09-12T17:35:32;23.10;92.30
46608;DHT22;32330;51.936;7.184;2022-09-12T17:37:58;23.00;92.30
46608;DHT22;32330;51.936;7.184;2022-09-12T17:40:23;22.80;92.70
46608;DHT22;32330;51.936;7.184;2022-09-12T17:42:49;22.70;93.80
46608;DHT22;32330;51.936;7.184;2022-09-12T17:45:14;22.70;94.00
46608;DHT22;32330;51.936;7.184;2022-09-12T17:47:40;22.50;94.40
46608;DHT22;32330;51.936;7.184;2022-09-12T17:50:05;22.50;94.80
46608;DHT22;32330;51.936;7.184;2022-09-12T17:52:31;22.40;95.80
46608;DHT22;32330;51.936;7.184;2022-09-12T17:54:57;22.20;95.40